sensor_id;sensor_type;location;lat;lon;timestamp;pressure;altitude;pressure_sealevel;temperature;humidity
77871;BME280;67067;46.850;7.578;2024-01-25T00:00:32;96725.38;;;11.25;44.82
77871;BME280;67067;46.850;7.578;2024-01-25T00:01:34;96731.94;;;11.41;44.52
77871;BME280;67067;46.850;7.578;2024-01-25T00:02:36;96724.97;;;11.47;44.29
77871;BME280;67067;46.850;7.578;2024-01-25T00:03:40;96716.63;;;11.43;44.34
77871;BME280;67067;46.850;7.578;2024-01-25T00:04:44;96725.94;;;11.52;44.03
77871;BME280;67067;46.850;7.578;2024-01-25T00:05:47;96726.19;;;11.51;44.23
77871;BME280;67067;46.850;7.578;2024-01-25T00:06:49;96724.53;;;11.50;44.17
77871;BME280;67067;46.850;7.578;2024-01-25T00:07:56;96718.81;;;11.53;44.23
77871;BME280;67067;46.850;7.578;2024-01-25T00:08:58;96715.91;;;11.54;43.92
77871;BME280;67067;46.850;7.578;2024-01-25T00:10:00;96711.91;;;11.45;44.13
77871;BME280;67067;46.850;7.578;2024-01-25T00:11:03;96713.72;;;11.51;44.19
77871;BME280;67067;46.850;7.578;2024-01-25T00:12:05;96716.38;;;11.51;44.12
77871;BME280;67067;46.850;7.578;2024-01-25T00:13:07;96722.03;;;11.55;44.11
77871;BME280;67067;46.850;7.578;2024-01-25T00:14:09;96721.47;;;11.53;44.18
77871;BME280;67067;46.850;7.578;2024-01-25T00:15:10;96712.59;;;11.40;44.47
77871;BME280;67067;46.850;7.578;2024-01-25T00:16:15;96717.97;;;11.52;44.05
77871;BME280;67067;46.850;7.578;2024-01-25T00:17:16;96715.13;;;11.54;44.15
77871;BME280;67067;46.850;7.578;2024-01-25T00:18:21;96713.84;;;11.57;44.20
77871;BME280;67067;46.850;7.578;2024-01-25T00:19:23;96707.75;;;11.56;44.09
77871;BME280;67067;46.850;7.578;2024-01-25T00:20:25;96703.25;;;11.57;44.05
77871;BME280;67067;46.850;7.578;2024-01-25T00:21:30;96707.75;;;11.56;44.19
77871;BME280;67067;46.850;7.578;2024-01-25T00:22:32;96700.00;;;11.54;44.16
77871;BME280;67067;46.850;7.578;2024-01-25T00:23:33;96700.50;;;11.45;44.32
77871;BME280;67067;46.850;7.578;2024-01-25T00:24:35;96707.97;;;11.54;43.86
77871;BME280;67067;46.850;7.578;2024-01-25T00:25:39;96699.56;;;11.58;43.89
77871;BME280;67067;46.850;7.578;2024-01-25T00:26:41;96700.84;;;11.55;43.93
77871;BME280;67067;46.850;7.578;2024-01-25T00:27:43;96698.31;;;11.42;44.25
77871;BME280;67067;46.850;7.578;2024-01-25T00:28:46;96699.22;;;11.54;44.11
77871;BME280;67067;46.850;7.578;2024-01-25T00:29:48;96700.25;;;11.53;44.07
77871;BME280;67067;46.850;7.578;2024-01-25T00:30:50;96702.06;;;11.52;44.13
77871;BME280;67067;46.850;7.578;2024-01-25T00:31:52;96694.44;;;11.37;44.33
77871;BME280;67067;46.850;7.578;2024-01-25T00:32:56;96696.38;;;11.49;44.08
77871;BME280;67067;46.850;7.578;2024-01-25T00:33:58;96691.88;;;11.49;43.91
77871;BME280;67067;46.850;7.578;2024-01-25T00:35:02;96695.34;;;11.50;44.05
77871;BME280;67067;46.850;7.578;2024-01-25T00:36:04;96690.50;;;11.47;44.24
77871;BME280;67067;46.850;7.578;2024-01-25T00:37:06;96690.72;;;11.45;44.17
77871;BME280;67067;46.850;7.578;2024-01-25T00:38:11;96690.13;;;11.43;44.10
77871;BME280;67067;46.850;7.578;2024-01-25T00:39:13;96681.38;;;11.43;44.21
77871;BME280;67067;46.850;7.578;2024-01-25T00:40:15;96680.34;;;11.44;44.29
77871;BME280;67067;46.850;7.578;2024-01-25T00:41:18;96689.91;;;11.45;44.02
77871;BME280;67067;46.850;7.578;2024-01-25T00:42:23;96690.50;;;11.47;44.17
77871;BME280;67067;46.850;7.578;2024-01-25T00:43:25;96677.09;;;11.42;44.10
77871;BME280;67067;46.850;7.578;2024-01-25T00:44:27;96686.09;;;11.40;44.18
77871;BME280;67067;46.850;7.578;2024-01-25T00:45:30;96686.66;;;11.43;44.01
77871;BME280;67067;46.850;7.578;2024-01-25T00:46:32;96685.06;;;11.42;44.12
77871;BME280;67067;46.850;7.578;2024-01-25T00:47:34;96693.22;;;11.40;44.25
77871;BME280;67067;46.850;7.578;2024-01-25T00:48:36;96691.59;;;11.39;44.09
77871;BME280;67067;46.850;7.578;2024-01-25T00:49:38;96695.28;;;11.38;44.17
77871;BME280;67067;46.850;7.578;2024-01-25T00:50:40;96689.16;;;11.37;43.99
77871;BME280;67067;46.850;7.578;2024-01-25T00:51:46;96697.09;;;11.37;44.14
77871;BME280;67067;46.850;7.578;2024-01-25T00:52:49;96700.97;;;11.42;44.03
77871;BME280;67067;46.850;7.578;2024-01-25T00:53:51;96702.13;;;11.46;43.94
77871;BME280;67067;46.850;7.578;2024-01-25T00:54:54;96705.81;;;11.45;44.07
77871;BME280;67067;46.850;7.578;2024-01-25T00:55:57;96703.53;;;11.48;44.02
77871;BME280;67067;46.850;7.578;2024-01-25T00:56:59;96713.97;;;11.43;44.20
77871;BME280;67067;46.850;7.578;2024-01-25T00:58:01;96702.13;;;11.46;44.18
77871;BME280;67067;46.850;7.578;2024-01-25T00:59:03;96706.16;;;11.48;44.07
77871;BME280;67067;46.850;7.578;2024-01-25T01:00:06;96700.50;;;11.45;44.08
77871;BME280;67067;46.850;7.578;2024-01-25T01:01:10;96708.22;;;11.46;43.98
77871;BME280;67067;46.850;7.578;2024-01-25T01:02:14;96709.25;;;11.45;44.08
77871;BME280;67067;46.850;7.578;2024-01-25T01:03:18;96702.13;;;11.46;44.02
77871;BME280;67067;46.850;7.578;2024-01-25T01:04:20;96702.31;;;11.51;43.94
77871;BME280;67067;46.850;7.578;2024-01-25T01:05:22;96703.94;;;11.52;43.96
77871;BME280;67067;46.850;7.578;2024-01-25T01:06:25;96703.31;;;11.50;43.98
77871;BME280;67067;46.850;7.578;2024-01-25T01:07:27;96701.03;;;11.53;43.92
77871;BME280;67067;46.850;7.578;2024-01-25T01:08:30;96700.84;;;11.55;43.77
77871;BME280;67067;46.850;7.578;2024-01-25T01:09:32;96693.16;;;11.47;44.08
77871;BME280;67067;46.850;7.578;2024-01-25T01:10:34;96698.44;;;11.47;43.98
77871;BME280;67067;46.850;7.578;2024-01-25T01:11:36;96693.72;;;11.30;44.30
77871;BME280;67067;46.850;7.578;2024-01-25T01:12:37;96683.84;;;11.37;44.20
77871;BME280;67067;46.850;7.578;2024-01-25T01:13:39;96686.94;;;11.34;44.29
77871;BME280;67067;46.850;7.578;2024-01-25T01:14:48;96687.63;;;11.30;44.63
77871;BME280;67067;46.850;7.578;2024-01-25T01:15:52;96697.84;;;11.26;44.79
77871;BME280;67067;46.850;7.578;2024-01-25T01:16:54;96686.78;;;11.10;45.26
77871;BME280;67067;46.850;7.578;2024-01-25T01:17:57;96688.09;;;11.01;45.42
77871;BME280;67067;46.850;7.578;2024-01-25T01:18:59;96682.22;;;10.99;45.27
77871;BME280;67067;46.850;7.578;2024-01-25T01:20:09;96683.44;;;10.96;45.35
77871;BME280;67067;46.850;7.578;2024-01-25T01:21:11;96692.41;;;10.95;45.32
77871;BME280;67067;46.850;7.578;2024-01-25T01:22:13;96692.81;;;10.99;45.24
77871;BME280;67067;46.850;7.578;2024-01-25T01:23:15;96687.44;;;11.06;45.10
77871;BME280;67067;46.850;7.578;2024-01-25T01:24:16;96694.38;;;11.07;45.03
77871;BME280;67067;46.850;7.578;2024-01-25T01:25:20;96688.97;;;10.95;45.16
77871;BME280;67067;46.850;7.578;2024-01-25T01:26:22;96694.16;;;11.08;45.07
77871;BME280;67067;46.850;7.578;2024-01-25T01:27:24;96697.53;;;10.97;45.19
77871;BME280;67067;46.850;7.578;2024-01-25T01:28:26;96692.09;;;11.10;44.97
77871;BME280;67067;46.850;7.578;2024-01-25T01:29:28;96699.59;;;11.14;44.91
77871;BME280;67067;46.850;7.578;2024-01-25T01:30:32;96690.97;;;11.00;45.00
77871;BME280;67067;46.850;7.578;2024-01-25T01:31:36;96684.63;;;11.01;45.00
77871;BME280;67067;46.850;7.578;2024-01-25T01:32:38;96685.75;;;11.11;44.85
77871;BME280;67067;46.850;7.578;2024-01-25T01:33:40;96686.59;;;11.12;44.90
77871;BME280;67067;46.850;7.578;2024-01-25T01:34:42;96683.94;;;11.12;44.95
77871;BME280;67067;46.850;7.578;2024-01-25T01:35:45;96685.00;;;11.04;45.18
77871;BME280;67067;46.850;7.578;2024-01-25T01:36:46;96694.78;;;11.04;45.24
77871;BME280;67067;46.850;7.578;2024-01-25T01:37:48;96687.81;;;11.09;45.05
77871;BME280;67067;46.850;7.578;2024-01-25T01:38:51;96682.31;;;11.11;44.98
77871;BME280;67067;46.850;7.578;2024-01-25T01:39:53;96689.50;;;11.04;45.08
77871;BME280;67067;46.850;7.578;2024-01-25T01:40:57;96687.38;;;11.13;45.06
77871;BME280;67067;46.850;7.578;2024-01-25T01:41:58;96682.22;;;10.99;45.19
77871;BME280;67067;46.850;7.578;2024-01-25T01:43:01;96684.38;;;11.09;45.11
77871;BME280;67067;46.850;7.578;2024-01-25T01:44:03;96682.91;;;11.13;44.96
77871;BME280;67067;46.850;7.578;2024-01-25T01:45:05;96679.81;;;11.16;44.77
77871;BME280;67067;46.850;7.578;2024-01-25T01:46:11;96686.94;;;11.16;45.03
77871;BME280;67067;46.850;7.578;2024-01-25T01:47:13;96692.81;;;11.18;44.97
77871;BME280;67067;46.850;7.578;2024-01-25T01:48:16;96688.13;;;11.20;44.84
77871;BME280;67067;46.850;7.578;2024-01-25T01:49:21;96691.00;;;11.18;45.15
77871;BME280;67067;46.850;7.578;2024-01-25T01:50:25;96684.09;;;11.17;45.27
77871;BME280;67067;46.850;7.578;2024-01-25T01:51:31;96687.53;;;11.18;45.42
77871;BME280;67067;46.850;7.578;2024-01-25T01:52:33;96687.75;;;11.16;45.52
77871;BME280;67067;46.850;7.578;2024-01-25T01:53:35;96681.44;;;11.17;45.55
77871;BME280;67067;46.850;7.578;2024-01-25T01:54:37;96686.94;;;11.16;45.63
77871;BME280;67067;46.850;7.578;2024-01-25T01:55:42;96687.97;;;11.15;45.56
77871;BME280;67067;46.850;7.578;2024-01-25T01:56:45;96695.91;;;11.15;45.93
77871;BME280;67067;46.850;7.578;2024-01-25T01:57:48;96690.63;;;11.15;45.71
77871;BME280;67067;46.850;7.578;2024-01-25T01:58:52;96688.56;;;11.17;45.83
77871;BME280;67067;46.850;7.578;2024-01-25T01:59:57;96692.22;;;11.16;46.02
77871;BME280;67067;46.850;7.578;2024-01-25T02:12:44;96699.59;;;11.14;45.50
77871;BME280;67067;46.850;7.578;2024-01-25T02:13:46;96694.69;;;11.17;45.74
77871;BME280;67067;46.850;7.578;2024-01-25T02:14:48;96692.19;;;11.22;45.22
77871;BME280;67067;46.850;7.578;2024-01-25T02:15:51;96687.63;;;11.30;45.10
77871;BME280;67067;46.850;7.578;2024-01-25T02:16:53;96687.53;;;11.36;45.21
77871;BME280;67067;46.850;7.578;2024-01-25T02:17:55;96695.28;;;11.38;45.11
77871;BME280;67067;46.850;7.578;2024-01-25T02:18:58;96694.09;;;11.34;45.15
77871;BME280;67067;46.850;7.578;2024-01-25T02:20:00;96696.94;;;11.32;45.42
77871;BME280;67067;46.850;7.578;2024-01-25T02:21:05;96691.44;;;11.34;45.18
77871;BME280;67067;46.850;7.578;2024-01-25T02:22:07;96693.28;;;11.33;45.57
77871;BME280;67067;46.850;7.578;2024-01-25T02:23:09;96691.66;;;11.32;45.68
77871;BME280;67067;46.850;7.578;2024-01-25T02:24:11;96691.06;;;11.30;45.68
77871;BME280;67067;46.850;7.578;2024-01-25T02:25:13;96690.84;;;11.32;45.71
77871;BME280;67067;46.850;7.578;2024-01-25T02:26:15;96688.84;;;11.27;46.05
77871;BME280;67067;46.850;7.578;2024-01-25T02:27:17;96689.88;;;11.26;45.88
77871;BME280;67067;46.850;7.578;2024-01-25T02:28:19;96684.00;;;11.24;45.82
77871;BME280;67067;46.850;7.578;2024-01-25T02:29:21;96680.31;;;11.25;45.97
77871;BME280;67067;46.850;7.578;2024-01-25T02:30:23;96685.63;;;11.25;46.06
77871;BME280;67067;46.850;7.578;2024-01-25T02:31:25;96684.81;;;11.24;46.30
77871;BME280;67067;46.850;7.578;2024-01-25T02:32:27;96684.00;;;11.24;46.06
77871;BME280;67067;46.850;7.578;2024-01-25T02:33:31;96682.63;;;11.21;46.00
77871;BME280;67067;46.850;7.578;2024-01-25T02:34:33;96681.19;;;11.19;46.21
77871;BME280;67067;46.850;7.578;2024-01-25T02:35:37;96677.75;;;11.18;46.00
77871;BME280;67067;46.850;7.578;2024-01-25T02:36:39;96675.31;;;11.17;46.26
77871;BME280;67067;46.850;7.578;2024-01-25T02:37:41;96676.56;;;11.14;46.22
77871;BME280;67067;46.850;7.578;2024-01-25T02:38:42;96682.66;;;11.15;46.19
77871;BME280;67067;46.850;7.578;2024-01-25T02:39:44;96676.56;;;11.14;46.05
77871;BME280;67067;46.850;7.578;2024-01-25T02:40:46;96674.19;;;11.06;46.15
77871;BME280;67067;46.850;7.578;2024-01-25T02:41:48;96671.91;;;11.09;45.89
77871;BME280;67067;46.850;7.578;2024-01-25T02:42:50;96668.25;;;11.10;45.96
77871;BME280;67067;46.850;7.578;2024-01-25T02:43:52;96675.41;;;11.10;46.06
77871;BME280;67067;46.850;7.578;2024-01-25T02:44:54;96673.97;;;11.07;45.90
77871;BME280;67067;46.850;7.578;2024-01-25T02:45:56;96677.22;;;11.09;46.06
77871;BME280;67067;46.850;7.578;2024-01-25T02:46:58;96665.44;;;11.05;46.16
77871;BME280;67067;46.850;7.578;2024-01-25T02:48:03;96665.00;;;11.08;46.02
77871;BME280;67067;46.850;7.578;2024-01-25T02:49:05;96672.34;;;11.06;46.14
77871;BME280;67067;46.850;7.578;2024-01-25T02:50:10;96666.47;;;11.04;45.83
77871;BME280;67067;46.850;7.578;2024-01-25T02:51:12;96670.44;;;10.95;46.34
77871;BME280;67067;46.850;7.578;2024-01-25T02:52:14;96669.97;;;10.79;46.84
77871;BME280;67067;46.850;7.578;2024-01-25T02:53:16;96669.97;;;10.79;46.43
77871;BME280;67067;46.850;7.578;2024-01-25T02:54:18;96669.81;;;10.74;46.55
77871;BME280;67067;46.850;7.578;2024-01-25T02:55:23;96663.50;;;10.75;46.39
77871;BME280;67067;46.850;7.578;2024-01-25T02:56:25;96667.75;;;10.76;46.31
77871;BME280;67067;46.850;7.578;2024-01-25T02:57:26;96670.72;;;10.61;46.42
77871;BME280;67067;46.850;7.578;2024-01-25T02:58:28;96662.28;;;10.71;46.35
77871;BME280;67067;46.850;7.578;2024-01-25T02:59:33;96662.47;;;10.76;46.23
77871;BME280;67067;46.850;7.578;2024-01-25T03:00:34;96669.91;;;10.61;46.54
77871;BME280;67067;46.850;7.578;2024-01-25T03:01:43;96678.00;;;10.66;46.48
77871;BME280;67067;46.850;7.578;2024-01-25T03:02:45;96670.66;;;10.68;46.56
77871;BME280;67067;46.850;7.578;2024-01-25T03:03:47;96660.88;;;10.68;46.68
77871;BME280;67067;46.850;7.578;2024-01-25T03:04:49;96660.78;;;10.57;46.67
77871;BME280;67067;46.850;7.578;2024-01-25T03:05:53;96656.03;;;10.65;46.57
77871;BME280;67067;46.850;7.578;2024-01-25T03:06:58;96655.59;;;10.68;46.53
77871;BME280;67067;46.850;7.578;2024-01-25T03:08:00;96659.63;;;10.71;46.45
77871;BME280;67067;46.850;7.578;2024-01-25T03:09:02;96664.34;;;10.69;46.62
77871;BME280;67067;46.850;7.578;2024-01-25T03:10:07;96655.78;;;10.67;46.53
77871;BME280;67067;46.850;7.578;2024-01-25T03:11:09;96651.09;;;10.69;46.61
77871;BME280;67067;46.850;7.578;2024-01-25T03:12:13;96650.13;;;10.63;46.68
77871;BME280;67067;46.850;7.578;2024-01-25T03:13:15;96645.28;;;10.60;46.63
77871;BME280;67067;46.850;7.578;2024-01-25T03:14:18;96643.66;;;10.59;46.77
77871;BME280;67067;46.850;7.578;2024-01-25T03:15:22;96654.88;;;10.55;46.95
77871;BME280;67067;46.850;7.578;2024-01-25T03:16:26;96646.00;;;10.49;46.91
77871;BME280;67067;46.850;7.578;2024-01-25T03:17:27;96650.53;;;10.35;47.22
77871;BME280;67067;46.850;7.578;2024-01-25T03:18:29;96654.13;;;10.47;47.07
77871;BME280;67067;46.850;7.578;2024-01-25T03:19:33;96646.00;;;10.49;47.12
77871;BME280;67067;46.850;7.578;2024-01-25T03:20:35;96643.78;;;10.39;47.00
77871;BME280;67067;46.850;7.578;2024-01-25T03:21:37;96642.53;;;10.48;46.81
77871;BME280;67067;46.850;7.578;2024-01-25T03:22:39;96649.59;;;10.55;46.63
77871;BME280;67067;46.850;7.578;2024-01-25T03:23:41;96645.09;;;10.30;47.03
77871;BME280;67067;46.850;7.578;2024-01-25T03:24:43;96649.69;;;10.41;47.22
77871;BME280;67067;46.850;7.578;2024-01-25T03:25:45;96652.91;;;10.50;46.85
77871;BME280;67067;46.850;7.578;2024-01-25T03:26:46;96649.28;;;10.37;47.03
77871;BME280;67067;46.850;7.578;2024-01-25T03:27:50;96649.03;;;10.46;46.88
77871;BME280;67067;46.850;7.578;2024-01-25T03:28:56;96645.56;;;10.52;46.73
77871;BME280;67067;46.850;7.578;2024-01-25T03:29:57;96653.25;;;10.53;46.87
77871;BME280;67067;46.850;7.578;2024-01-25T03:30:59;96657.97;;;10.51;47.06
77871;BME280;67067;46.850;7.578;2024-01-25T03:32:04;96656.94;;;10.52;46.91
77871;BME280;67067;46.850;7.578;2024-01-25T03:33:06;96651.22;;;10.56;46.84
77871;BME280;67067;46.850;7.578;2024-01-25T03:34:08;96648.56;;;10.56;46.94
77871;BME280;67067;46.850;7.578;2024-01-25T03:35:12;96659.00;;;10.50;46.98
77871;BME280;67067;46.850;7.578;2024-01-25T03:36:14;96657.78;;;10.46;47.10
77871;BME280;67067;46.850;7.578;2024-01-25T03:37:17;96669.00;;;10.48;47.14
77871;BME280;67067;46.850;7.578;2024-01-25T03:38:19;96665.31;;;10.49;47.08
77871;BME280;67067;46.850;7.578;2024-01-25T03:39:21;96664.78;;;10.34;47.53
77871;BME280;67067;46.850;7.578;2024-01-25T03:40:22;96656.59;;;10.42;47.14
77871;BME280;67067;46.850;7.578;2024-01-25T03:41:24;96661.88;;;10.42;47.08
77871;BME280;67067;46.850;7.578;2024-01-25T03:42:30;96660.69;;;10.38;47.30
77871;BME280;67067;46.850;7.578;2024-01-25T03:43:35;96671.47;;;10.36;47.32
77871;BME280;67067;46.850;7.578;2024-01-25T03:44:44;96672.13;;;10.32;47.63
77871;BME280;67067;46.850;7.578;2024-01-25T03:45:50;96669.94;;;10.29;47.67
77871;BME280;67067;46.850;7.578;2024-01-25T03:46:52;96663.19;;;10.33;47.74
77871;BME280;67067;46.850;7.578;2024-01-25T03:47:53;96666.03;;;10.31;47.55
77871;BME280;67067;46.850;7.578;2024-01-25T03:48:55;96664.19;;;10.32;47.60
77871;BME280;67067;46.850;7.578;2024-01-25T03:49:57;96666.25;;;10.30;47.54
77871;BME280;67067;46.850;7.578;2024-01-25T03:51:04;96669.75;;;10.23;47.72
77871;BME280;67067;46.850;7.578;2024-01-25T03:52:08;96666.94;;;10.18;47.95
77871;BME280;67067;46.850;7.578;2024-01-25T03:53:10;96666.13;;;10.18;48.22
77871;BME280;67067;46.850;7.578;2024-01-25T03:54:12;96656.38;;;10.12;48.23
77871;BME280;67067;46.850;7.578;2024-01-25T03:55:14;96662.94;;;10.09;48.51
77871;BME280;67067;46.850;7.578;2024-01-25T03:56:15;96657.94;;;9.94;48.54
77871;BME280;67067;46.850;7.578;2024-01-25T03:57:21;96661.13;;;10.03;48.34
77871;BME280;67067;46.850;7.578;2024-01-25T03:58:23;96656.06;;;10.01;48.26
77871;BME280;67067;46.850;7.578;2024-01-25T03:59:25;96658.00;;;9.80;48.98
77871;BME280;67067;46.850;7.578;2024-01-25T04:00:29;96657.59;;;9.84;48.91
77871;BME280;67067;46.850;7.578;2024-01-25T04:01:31;96654.13;;;9.83;48.81
77871;BME280;67067;46.850;7.578;2024-01-25T04:02:33;96647.19;;;9.82;49.06
77871;BME280;67067;46.850;7.578;2024-01-25T04:03:37;96646.25;;;9.70;49.49
77871;BME280;67067;46.850;7.578;2024-01-25T04:04:41;96644.22;;;9.72;49.35
77871;BME280;67067;46.850;7.578;2024-01-25T04:05:45;96639.94;;;9.71;49.13
77871;BME280;67067;46.850;7.578;2024-01-25T04:06:47;96641.56;;;9.72;49.14
77871;BME280;67067;46.850;7.578;2024-01-25T04:07:51;96642.00;;;9.69;49.16
77871;BME280;67067;46.850;7.578;2024-01-25T04:08:55;96654.19;;;9.70;49.18
77871;BME280;67067;46.850;7.578;2024-01-25T04:09:57;96655.28;;;9.55;49.60
77871;BME280;67067;46.850;7.578;2024-01-25T04:10:59;96647.28;;;9.69;49.30
77871;BME280;67067;46.850;7.578;2024-01-25T04:12:00;96651.81;;;9.55;49.46
77871;BME280;67067;46.850;7.578;2024-01-25T04:13:03;96644.81;;;9.67;49.08
77871;BME280;67067;46.850;7.578;2024-01-25T04:14:09;96648.31;;;9.68;49.45
77871;BME280;67067;46.850;7.578;2024-01-25T04:15:10;96642.06;;;9.55;49.35
77871;BME280;67067;46.850;7.578;2024-01-25T04:16:14;96647.09;;;9.63;49.28
77871;BME280;67067;46.850;7.578;2024-01-25T04:17:16;96647.69;;;9.65;49.20
77871;BME280;67067;46.850;7.578;2024-01-25T04:18:18;96651.97;;;9.66;49.29
77871;BME280;67067;46.850;7.578;2024-01-25T04:19:20;96646.50;;;9.61;49.47
77871;BME280;67067;46.850;7.578;2024-01-25T04:20:22;96645.31;;;9.57;49.32
77871;BME280;67067;46.850;7.578;2024-01-25T04:21:24;96651.44;;;9.51;49.75
77871;BME280;67067;46.850;7.578;2024-01-25T04:22:28;96650.44;;;9.39;49.85
77871;BME280;67067;46.850;7.578;2024-01-25T04:23:33;96655.72;;;9.45;50.05
77871;BME280;67067;46.850;7.578;2024-01-25T04:24:35;96661.41;;;9.42;50.11
77871;BME280;67067;46.850;7.578;2024-01-25T04:25:37;96662.00;;;9.44;49.97
77871;BME280;67067;46.850;7.578;2024-01-25T04:26:41;96663.88;;;9.44;50.13
77871;BME280;67067;46.850;7.578;2024-01-25T04:27:43;96660.00;;;9.26;50.39
77871;BME280;67067;46.850;7.578;2024-01-25T04:28:47;96655.53;;;9.40;50.00
77871;BME280;67067;46.850;7.578;2024-01-25T04:29:48;96662.81;;;9.31;50.15
77871;BME280;67067;46.850;7.578;2024-01-25T04:30:51;96658.56;;;9.44;49.96
77871;BME280;67067;46.850;7.578;2024-01-25T04:31:53;96659.78;;;9.48;49.85
77871;BME280;67067;46.850;7.578;2024-01-25T04:32:55;96657.56;;;9.45;49.98
77871;BME280;67067;46.850;7.578;2024-01-25T04:33:56;96656.34;;;9.34;50.00
77871;BME280;67067;46.850;7.578;2024-01-25T04:34:58;96654.28;;;9.36;49.97
77871;BME280;67067;46.850;7.578;2024-01-25T04:36:01;96659.38;;;9.37;50.20
77871;BME280;67067;46.850;7.578;2024-01-25T04:37:05;96655.53;;;9.40;50.21
77871;BME280;67067;46.850;7.578;2024-01-25T04:38:07;96658.38;;;9.39;50.16
77871;BME280;67067;46.850;7.578;2024-01-25T04:39:09;96659.78;;;9.41;50.09
77871;BME280;67067;46.850;7.578;2024-01-25T04:40:11;96654.09;;;9.37;50.21
77871;BME280;67067;46.850;7.578;2024-01-25T04:41:13;96656.09;;;9.35;50.33
77871;BME280;67067;46.850;7.578;2024-01-25T04:42:17;96652.72;;;9.21;50.61
77871;BME280;67067;46.850;7.578;2024-01-25T04:43:22;96660.78;;;9.33;50.52
77871;BME280;67067;46.850;7.578;2024-01-25T04:44:24;96654.47;;;9.34;50.49
77871;BME280;67067;46.850;7.578;2024-01-25T04:45:25;96656.16;;;9.22;50.32
77871;BME280;67067;46.850;7.578;2024-01-25T04:46:27;96667.09;;;9.32;50.30
77871;BME280;67067;46.850;7.578;2024-01-25T04:47:29;96656.75;;;9.37;50.17
77871;BME280;67067;46.850;7.578;2024-01-25T04:48:31;96656.34;;;9.41;50.11
77871;BME280;67067;46.850;7.578;2024-01-25T04:49:34;96660.81;;;9.40;49.81
77871;BME280;67067;46.850;7.578;2024-01-25T04:50:36;96658.16;;;9.40;49.86
77871;BME280;67067;46.850;7.578;2024-01-25T04:51:38;96654.31;;;9.43;49.66
77871;BME280;67067;46.850;7.578;2024-01-25T04:52:44;96657.75;;;9.43;49.76
77871;BME280;67067;46.850;7.578;2024-01-25T04:53:46;96658.78;;;9.42;49.58
77871;BME280;67067;46.850;7.578;2024-01-25T04:54:48;96658.78;;;9.42;49.68
77871;BME280;67067;46.850;7.578;2024-01-25T04:55:50;96663.66;;;9.39;49.80
77871;BME280;67067;46.850;7.578;2024-01-25T04:56:51;96660.66;;;9.15;50.09
77871;BME280;67067;46.850;7.578;2024-01-25T04:57:53;96655.34;;;9.21;49.89
77871;BME280;67067;46.850;7.578;2024-01-25T04:58:57;96655.97;;;9.17;50.12
77871;BME280;67067;46.850;7.578;2024-01-25T04:59:59;96660.03;;;9.13;50.22
77871;BME280;67067;46.850;7.578;2024-01-25T05:02:10;96651.81;;;8.55;51.20
77871;BME280;67067;46.850;7.578;2024-01-25T05:03:12;96657.69;;;8.37;51.57
77871;BME280;67067;46.850;7.578;2024-01-25T05:04:15;96651.38;;;8.25;51.67
77871;BME280;67067;46.850;7.578;2024-01-25T05:05:19;96649.94;;;8.35;51.72
77871;BME280;67067;46.850;7.578;2024-01-25T05:06:22;96645.09;;;8.32;52.01
77871;BME280;67067;46.850;7.578;2024-01-25T05:07:23;96650.53;;;8.17;52.73
77871;BME280;67067;46.850;7.578;2024-01-25T05:08:31;96644.28;;;8.32;52.24
77871;BME280;67067;46.850;7.578;2024-01-25T05:09:33;96648.34;;;8.41;51.72
77871;BME280;67067;46.850;7.578;2024-01-25T05:10:35;96649.16;;;8.35;51.76
77871;BME280;67067;46.850;7.578;2024-01-25T05:11:39;96651.78;;;8.48;51.52
77871;BME280;67067;46.850;7.578;2024-01-25T05:12:41;96651.78;;;8.48;51.53
77871;BME280;67067;46.850;7.578;2024-01-25T05:13:47;96658.09;;;8.54;51.43
77871;BME280;67067;46.850;7.578;2024-01-25T05:14:51;96644.28;;;8.45;51.50
77871;BME280;67067;46.850;7.578;2024-01-25T05:15:53;96652.59;;;8.56;51.45
77871;BME280;67067;46.850;7.578;2024-01-25T05:16:55;96648.13;;;8.63;51.13
77871;BME280;67067;46.850;7.578;2024-01-25T05:17:59;96647.94;;;8.58;51.41
77871;BME280;67067;46.850;7.578;2024-01-25T05:19:01;96644.88;;;8.61;51.25
77871;BME280;67067;46.850;7.578;2024-01-25T05:20:05;96646.31;;;8.63;51.32
77871;BME280;67067;46.850;7.578;2024-01-25T05:21:07;96644.47;;;8.64;51.33
77871;BME280;67067;46.850;7.578;2024-01-25T05:22:09;96646.09;;;8.65;51.43
77871;BME280;67067;46.850;7.578;2024-01-25T05:23:11;96643.66;;;8.70;51.21
77871;BME280;67067;46.850;7.578;2024-01-25T05:24:12;96651.16;;;8.60;51.38
77871;BME280;67067;46.850;7.578;2024-01-25T05:25:14;96655.63;;;8.73;51.22
77871;BME280;67067;46.850;7.578;2024-01-25T05:26:16;96661.34;;;8.76;50.89
77871;BME280;67067;46.850;7.578;2024-01-25T05:27:18;96656.44;;;8.80;51.04
77871;BME280;67067;46.850;7.578;2024-01-25T05:28:20;96661.34;;;8.70;50.93
77871;BME280;67067;46.850;7.578;2024-01-25T05:29:21;96652.00;;;8.81;50.62
77871;BME280;67067;46.850;7.578;2024-01-25T05:30:23;96648.53;;;8.73;50.91
77871;BME280;67067;46.850;7.578;2024-01-25T05:31:25;96652.00;;;8.81;50.94
77871;BME280;67067;46.850;7.578;2024-01-25T05:32:29;96662.13;;;8.70;51.16
77871;BME280;67067;46.850;7.578;2024-01-25T05:33:31;96660.09;;;8.86;50.79
77871;BME280;67067;46.850;7.578;2024-01-25T05:34:34;96670.25;;;8.89;50.86
77871;BME280;67067;46.850;7.578;2024-01-25T05:35:38;96660.50;;;8.89;50.60
77871;BME280;67067;46.850;7.578;2024-01-25T05:36:42;96666.78;;;8.95;50.60
77871;BME280;67067;46.850;7.578;2024-01-25T05:37:44;96667.19;;;8.99;50.37
77871;BME280;67067;46.850;7.578;2024-01-25T05:38:48;96664.53;;;8.99;50.44
77871;BME280;67067;46.850;7.578;2024-01-25T05:39:50;96666.56;;;9.03;50.38
77871;BME280;67067;46.850;7.578;2024-01-25T05:40:52;96670.00;;;9.04;50.49
77871;BME280;67067;46.850;7.578;2024-01-25T05:41:59;96663.50;;;9.06;50.22
77871;BME280;67067;46.850;7.578;2024-01-25T05:43:00;96662.91;;;9.11;50.26
77871;BME280;67067;46.850;7.578;2024-01-25T05:44:02;96663.50;;;9.13;50.13
77871;BME280;67067;46.850;7.578;2024-01-25T05:45:07;96668.38;;;9.16;50.27
77871;BME280;67067;46.850;7.578;2024-01-25T05:46:10;96663.28;;;9.21;50.09